createdAt,value
2023-01-13T00:02:56.807Z,2.1
2023-01-13T00:05:58.781Z,1.2
2023-01-13T00:09:00.722Z,1.8
2023-01-13T00:12:02.690Z,1.8
2023-01-13T00:15:04.653Z,1.7
2023-01-13T00:18:06.655Z,1.6
2023-01-13T00:21:08.620Z,1.4
2023-01-13T00:24:10.573Z,2.2
2023-01-13T00:27:12.508Z,1.5
2023-01-13T00:30:14.502Z,1.5
2023-01-13T00:33:16.448Z,3.4
2023-01-13T00:36:18.400Z,0.9
2023-01-13T00:39:20.320Z,2.6
2023-01-13T00:42:22.420Z,1.6
2023-01-13T00:45:24.243Z,1.3
2023-01-13T00:48:26.234Z,1.2
2023-01-13T00:51:28.187Z,2
2023-01-13T00:54:30.176Z,1.1
2023-01-13T00:57:32.110Z,2.9
2023-01-13T01:00:34.127Z,3.4
2023-01-13T01:03:36.029Z,1.2
2023-01-13T01:06:38.019Z,2.2
2023-01-13T01:09:39.969Z,1.8
2023-01-13T01:12:41.914Z,1.3
2023-01-13T01:15:43.906Z,0.5
2023-01-13T01:18:45.832Z,0.9
2023-01-13T01:21:47.771Z,2.3
2023-01-13T01:24:49.765Z,2.9
2023-01-13T01:27:51.698Z,2.4
2023-01-13T01:30:53.681Z,1.2
2023-01-13T01:33:55.675Z,0.7
2023-01-13T01:36:57.586Z,2.8
2023-01-13T01:39:59.541Z,1.7
2023-01-13T01:43:01.558Z,1.1
2023-01-13T01:46:03.483Z,1.5
2023-01-13T01:49:05.434Z,3.3
2023-01-13T01:52:07.480Z,2.2
2023-01-13T01:55:09.382Z,0.6
2023-01-13T01:58:11.365Z,1.3
2023-01-13T02:01:13.502Z,0.7
2023-01-13T02:04:15.290Z,0.8
2023-01-13T02:07:17.190Z,2.1
2023-01-13T02:10:19.161Z,3.2
2023-01-13T02:13:21.123Z,2.5
2023-01-13T02:16:23.118Z,1.5
2023-01-13T02:19:25.018Z,2.4
2023-01-13T02:22:27.017Z,2.1
2023-01-13T02:25:28.970Z,1.5
2023-01-13T02:28:30.934Z,1.3
2023-01-13T02:31:32.926Z,0.5
2023-01-13T02:34:34.848Z,1.6
2023-01-13T02:37:36.781Z,2.8
2023-01-13T02:40:38.732Z,1.1
2023-01-13T02:43:40.730Z,2.2
2023-01-13T02:46:42.703Z,1.3
2023-01-13T02:49:44.649Z,1.7
2023-01-13T02:52:46.651Z,0.6
2023-01-13T02:55:48.563Z,1.7
2023-01-13T02:58:50.584Z,0.9
2023-01-13T03:01:52.592Z,0.5
2023-01-13T03:04:54.417Z,1.1
2023-01-13T03:07:56.376Z,0.8
2023-01-13T03:10:58.299Z,0.7
2023-01-13T03:14:00.284Z,1
2023-01-13T03:17:02.208Z,0.4
2023-01-13T03:20:04.175Z,1.4
2023-01-13T03:23:06.143Z,0.8
2023-01-13T03:26:08.094Z,0.7
2023-01-13T03:29:10.087Z,1.3
2023-01-13T03:32:12.020Z,0.7
2023-01-13T03:35:13.967Z,0.5
2023-01-13T03:38:15.944Z,0.7
2023-01-13T03:41:17.925Z,2
2023-01-13T03:44:19.884Z,0.7
2023-01-13T03:47:21.799Z,0.7
2023-01-13T03:50:23.857Z,0.3
2023-01-13T03:53:25.725Z,1.6
2023-01-13T03:56:27.681Z,0.6
2023-01-13T03:59:29.663Z,0.5
2023-01-13T04:02:31.675Z,1
2023-01-13T04:05:33.563Z,0.4
2023-01-13T04:08:35.545Z,1.1
2023-01-13T04:11:37.481Z,1
2023-01-13T04:14:39.479Z,2
2023-01-13T04:17:41.437Z,2.1
2023-01-13T04:20:43.430Z,0.5
2023-01-13T04:23:45.337Z,1
2023-01-13T04:26:47.325Z,0.3
2023-01-13T04:29:49.257Z,0.6
2023-01-13T04:32:51.222Z,0.8
2023-01-13T04:35:53.195Z,0.5
2023-01-13T04:38:55.158Z,0.2
2023-01-13T04:41:57.106Z,0.5
2023-01-13T04:44:59.126Z,0.3
2023-01-13T04:48:01.020Z,1.5
2023-01-13T04:51:03.023Z,0.5
2023-01-13T04:54:04.936Z,0.4
2023-01-13T04:57:06.888Z,0.5
2023-01-13T05:00:08.854Z,0.8
2023-01-13T05:03:10.867Z,0.7
2023-01-13T05:06:12.815Z,0.8
2023-01-13T05:09:14.783Z,1.3
2023-01-13T05:12:16.713Z,0.6
2023-01-13T05:15:18.708Z,0.7
2023-01-13T05:18:20.644Z,0.6
2023-01-13T05:21:22.616Z,0.3
2023-01-13T05:24:24.569Z,1.5
2023-01-13T05:27:26.538Z,0.5
2023-01-13T05:30:28.521Z,2
2023-01-13T05:33:30.513Z,2.3
2023-01-13T05:36:32.477Z,0.9
2023-01-13T05:39:34.395Z,1.2
2023-01-13T05:42:36.367Z,0.7
2023-01-13T05:45:38.311Z,0.8
2023-01-13T05:48:40.313Z,0.4
2023-01-13T05:51:42.300Z,0.3
2023-01-13T05:54:44.245Z,1.9
2023-01-13T05:57:46.189Z,1.2
2023-01-13T06:00:48.130Z,0.8
2023-01-13T06:03:50.084Z,1.9
2023-01-13T06:06:52.029Z,1.6
2023-01-13T06:09:53.991Z,0.4
2023-01-13T06:12:55.954Z,2.9
2023-01-13T06:15:58.062Z,2.5
2023-01-13T06:18:59.936Z,1.3
2023-01-13T06:22:01.871Z,3.5
2023-01-13T06:25:03.854Z,1
2023-01-13T06:28:05.783Z,0.7
2023-01-13T06:31:07.819Z,2
2023-01-13T06:34:09.748Z,4
2023-01-13T06:37:11.708Z,0.9
2023-01-13T06:40:13.663Z,0.9
2023-01-13T06:43:16.499Z,2.1
2023-01-13T06:46:17.642Z,2.5
2023-01-13T06:49:21.525Z,0.8
2023-01-13T06:52:21.540Z,2.9
2023-01-13T06:55:23.455Z,1.2
2023-01-13T06:58:25.414Z,0.8
2023-01-13T07:01:27.541Z,1.5
2023-01-13T07:04:29.336Z,2.1
2023-01-13T07:07:31.311Z,1.6
2023-01-13T07:10:33.272Z,1.4
2023-01-13T07:13:35.218Z,1.8
2023-01-13T07:16:37.228Z,2.3
2023-01-13T07:19:39.124Z,3.3
2023-01-13T07:22:41.134Z,2.3
2023-01-13T07:25:43.052Z,1.7
2023-01-13T07:28:45.061Z,0.7
2023-01-13T07:31:49.762Z,1.6
2023-01-13T07:34:48.947Z,2.8
2023-01-13T07:37:50.944Z,1.9
2023-01-13T07:40:52.867Z,1.6
2023-01-13T07:43:54.944Z,1.7
2023-01-13T07:46:56.803Z,1.2
2023-01-13T07:49:58.790Z,1.2
2023-01-13T07:53:00.775Z,0.4
2023-01-13T07:56:02.711Z,2.5
2023-01-13T07:59:04.666Z,1.2
2023-01-13T08:02:06.773Z,2.8
2023-01-13T08:05:08.598Z,3.5
2023-01-13T08:08:10.595Z,1.9
2023-01-13T08:11:12.571Z,2.9
2023-01-13T08:14:14.519Z,3.6
2023-01-13T08:17:16.431Z,1.9
2023-01-13T08:20:18.424Z,3.2
2023-01-13T08:23:20.376Z,1.1
2023-01-13T08:26:22.360Z,2.1
2023-01-13T08:29:24.311Z,1.5
2023-01-13T08:32:26.260Z,1.3
2023-01-13T08:35:28.229Z,1
2023-01-13T08:38:30.200Z,1
2023-01-13T08:41:32.129Z,1.3
2023-01-13T08:44:34.125Z,1.4
2023-01-13T08:47:36.043Z,2.2
2023-01-13T08:50:38.002Z,1.3
2023-01-13T08:53:39.966Z,1.4
2023-01-13T08:56:41.966Z,1.1
2023-01-13T08:59:43.956Z,1.4
2023-01-13T09:02:45.866Z,1.4
2023-01-13T09:05:47.811Z,1.3
2023-01-13T09:08:49.773Z,1.5
2023-01-13T09:11:51.748Z,1.6
2023-01-13T09:14:53.714Z,1.7
2023-01-13T09:17:55.717Z,1.6
2023-01-13T09:20:57.654Z,3.8
2023-01-13T09:23:59.631Z,5.2
2023-01-13T09:27:01.576Z,1.9
2023-01-13T09:30:03.540Z,3.7
2023-01-13T09:33:05.486Z,3.8
2023-01-13T09:36:07.449Z,4
2023-01-13T09:39:09.411Z,3.4
2023-01-13T09:42:11.398Z,1.2
2023-01-13T09:45:13.336Z,2.1
2023-01-13T09:48:15.309Z,2.1
2023-01-13T09:51:17.297Z,2.6
2023-01-13T09:54:19.176Z,3.7
2023-01-13T09:57:21.152Z,2.7
2023-01-13T10:00:23.133Z,2
2023-01-13T10:03:25.461Z,3.5
2023-01-13T10:06:27.050Z,3.1
2023-01-13T10:09:29.006Z,3.3
2023-01-13T10:12:30.961Z,3.1
2023-01-13T10:15:32.930Z,3.2
2023-01-13T10:18:34.882Z,3.4
2023-01-13T10:21:36.832Z,3.5
2023-01-13T10:24:38.806Z,5
2023-01-13T10:27:40.768Z,3.7
2023-01-13T10:30:42.731Z,5.5
2023-01-13T10:33:44.716Z,6.7
2023-01-13T10:36:46.674Z,6.2
2023-01-13T10:39:48.609Z,4.7
2023-01-13T10:42:50.631Z,6.9
2023-01-13T10:45:52.564Z,5.8
2023-01-13T10:48:54.499Z,11.5
2023-01-13T10:51:56.461Z,6.6
2023-01-13T10:54:58.561Z,2.9
2023-01-13T10:58:00.401Z,4.9
2023-01-13T11:01:02.394Z,5.1
2023-01-13T11:04:04.341Z,4.4
2023-01-13T11:07:06.330Z,4.5
2023-01-13T11:10:08.344Z,6.4
2023-01-13T11:13:10.346Z,7
2023-01-13T11:16:12.451Z,4.4
2023-01-13T11:19:14.273Z,5.3
2023-01-13T11:22:16.240Z,3.9
2023-01-13T11:25:18.232Z,4
2023-01-13T11:28:20.186Z,3.9
2023-01-13T11:31:22.209Z,4
2023-01-13T11:34:24.079Z,8.2
2023-01-13T11:37:26.030Z,5.1
2023-01-13T11:40:28.015Z,4.4
2023-01-13T11:43:29.987Z,5.7
2023-01-13T11:46:32.027Z,6.4
2023-01-13T11:49:33.990Z,8.9
2023-01-13T11:52:35.949Z,3.5
2023-01-13T11:55:37.909Z,5.6
2023-01-13T11:58:50.136Z,7.7
2023-01-13T12:01:41.913Z,4.7
2023-01-13T12:04:43.856Z,4.6
2023-01-13T12:07:45.828Z,5.9
2023-01-13T12:10:47.752Z,5
2023-01-13T12:13:49.698Z,6.4
2023-01-13T12:16:51.747Z,6.5
2023-01-13T12:19:53.621Z,7.3
2023-01-13T12:22:55.628Z,5.5
2023-01-13T12:25:57.557Z,7.6
2023-01-13T12:28:59.628Z,5.7
2023-01-13T12:32:01.612Z,7.3
2023-01-13T12:35:03.447Z,6.4
2023-01-13T12:38:05.472Z,6.2
2023-01-13T12:41:07.409Z,4.6
2023-01-13T12:44:09.372Z,5.1
2023-01-13T12:47:11.356Z,8.9
2023-01-13T12:50:13.295Z,7.8
2023-01-13T12:53:15.282Z,6
2023-01-13T12:56:17.232Z,6.4
2023-01-13T12:59:19.274Z,5.6
2023-01-13T13:02:21.217Z,6.2
2023-01-13T13:05:23.107Z,6.7
2023-01-13T13:08:25.277Z,7.2
2023-01-13T13:11:27.057Z,4
2023-01-13T13:14:29.033Z,6.8
2023-01-13T13:17:30.958Z,10.1
2023-01-13T13:20:33.026Z,11.6
2023-01-13T13:23:34.861Z,9.5
2023-01-13T13:26:36.847Z,4.9
2023-01-13T13:29:38.801Z,7.5
2023-01-13T13:32:40.763Z,13.3
2023-01-13T13:35:42.801Z,8.4
2023-01-13T13:38:44.738Z,7.3
2023-01-13T13:41:46.713Z,7.9
2023-01-13T13:44:48.684Z,6.1
2023-01-13T13:47:50.650Z,5
2023-01-13T13:50:52.585Z,4.7
2023-01-13T13:53:54.659Z,3.5
2023-01-13T13:56:56.575Z,6.3
2023-01-13T13:59:58.544Z,3.5
2023-01-13T14:03:00.513Z,5.1
2023-01-13T14:06:02.516Z,4.3
2023-01-13T14:09:04.456Z,4.5
2023-01-13T14:12:06.392Z,5.7
2023-01-13T14:15:08.338Z,7.6
2023-01-13T14:18:10.304Z,7.7
2023-01-13T14:21:12.276Z,8.5
2023-01-13T14:24:14.245Z,6.4
2023-01-13T14:27:16.169Z,6.6
2023-01-13T14:30:18.145Z,13
2023-01-13T14:33:20.086Z,7.9
2023-01-13T14:36:22.171Z,6.8
2023-01-13T14:39:24.079Z,7.7
2023-01-13T14:42:28.822Z,3.9
2023-01-13T14:45:30.826Z,9.5
2023-01-13T14:48:32.785Z,9.7
2023-01-13T14:51:34.749Z,9.6
2023-01-13T14:54:36.702Z,9.1
2023-01-13T14:57:38.659Z,8.4
2023-01-13T15:00:40.615Z,7.7
2023-01-13T15:03:42.736Z,5.1
2023-01-13T15:06:44.591Z,7.4
2023-01-13T15:09:46.583Z,5.7
2023-01-13T15:12:48.527Z,5
2023-01-13T15:15:50.558Z,5.6
2023-01-13T15:18:52.438Z,4.8
2023-01-13T15:21:54.390Z,8
2023-01-13T15:24:56.351Z,4.5
2023-01-13T15:27:58.323Z,3.8
2023-01-13T15:31:00.290Z,6
2023-01-13T15:34:02.242Z,7.2
2023-01-13T15:37:04.213Z,7.2
2023-01-13T15:40:06.184Z,3.9
2023-01-13T15:43:08.138Z,5.8
2023-01-13T15:46:10.148Z,9.1
2023-01-13T15:49:12.089Z,5.4
2023-01-13T15:52:14.083Z,6
2023-01-13T15:55:16.004Z,7.2
2023-01-13T15:58:17.947Z,6.2
2023-01-13T16:01:20.168Z,4.8
2023-01-13T16:04:21.989Z,6.2
2023-01-13T16:07:23.966Z,4.8
2023-01-13T16:10:26.112Z,3.8
2023-01-13T16:13:27.873Z,6.2
2023-01-13T16:16:29.956Z,7.7
2023-01-13T16:19:31.784Z,5.3
2023-01-13T16:22:33.745Z,5.2
2023-01-13T16:25:35.700Z,2.6
2023-01-13T16:28:37.672Z,3.8
2023-01-13T16:31:39.706Z,7.6
2023-01-13T16:34:41.614Z,7.5
2023-01-13T16:37:43.616Z,7.2
2023-01-13T16:40:45.581Z,4.9
2023-01-13T16:43:47.568Z,5
2023-01-13T16:46:49.477Z,4.6
2023-01-13T16:49:51.535Z,4.9
2023-01-13T16:52:53.398Z,5.1
2023-01-13T16:55:55.402Z,4.1
2023-01-13T16:58:57.327Z,5
2023-01-13T17:01:59.344Z,11.4
2023-01-13T17:05:01.461Z,6.7
2023-01-13T17:08:03.256Z,5.4
2023-01-13T17:11:05.195Z,4.2
2023-01-13T17:14:17.178Z,9.5
2023-01-13T17:17:09.091Z,10
2023-01-13T17:20:11.053Z,8.4
2023-01-13T17:23:13.120Z,6.1
2023-01-13T17:26:15.001Z,6.2
2023-01-13T17:29:16.963Z,6.4
2023-01-13T17:32:18.910Z,7.7
2023-01-13T17:35:20.897Z,5.4
2023-01-13T17:38:22.878Z,4
2023-01-13T17:41:24.814Z,5.5
2023-01-13T17:44:26.784Z,5.2
2023-01-13T17:47:28.880Z,5.7
2023-01-13T17:50:30.842Z,2.3
2023-01-13T17:53:32.962Z,7.6
2023-01-13T17:56:37.973Z,6.5
2023-01-13T17:59:39.932Z,5.6
2023-01-13T18:02:43.637Z,6
2023-01-13T18:05:47.254Z,7.7
2023-01-13T18:08:49.204Z,5.2
2023-01-13T18:11:51.089Z,4.9
2023-01-13T18:14:53.064Z,5.8
2023-01-13T18:17:55.132Z,7.6
2023-01-13T18:20:58.800Z,5.3
2023-01-13T18:23:59.115Z,7.8
2023-01-13T18:27:01.103Z,6.7
2023-01-13T18:30:03.040Z,5.1
2023-01-13T18:33:05.026Z,7.6
2023-01-13T18:36:09.913Z,6.7
2023-01-13T18:39:11.862Z,10.7
2023-01-13T18:42:13.885Z,4.2
2023-01-13T18:45:15.836Z,5
2023-01-13T18:48:17.784Z,9.1
2023-01-13T18:51:19.757Z,6.5
2023-01-13T18:54:21.711Z,6.8
2023-01-13T18:57:26.682Z,3.9
2023-01-13T19:00:28.655Z,5.3
2023-01-13T19:03:30.781Z,5.9
2023-01-13T19:06:33.154Z,7.9
2023-01-13T19:09:34.570Z,7.1
2023-01-13T19:12:36.572Z,6.5
2023-01-13T19:15:38.529Z,10.9
2023-01-13T19:18:40.461Z,6.7
2023-01-13T19:21:42.416Z,6.5
2023-01-13T19:24:44.403Z,8.6
2023-01-13T19:27:46.380Z,4.7
2023-01-13T19:30:48.387Z,7.6
2023-01-13T19:33:50.260Z,8
2023-01-13T19:36:52.263Z,7.5
2023-01-13T19:39:54.223Z,5.5
2023-01-13T19:42:56.275Z,9
2023-01-13T19:45:58.154Z,9.1
2023-01-13T19:49:00.113Z,6.3
2023-01-13T19:52:02.088Z,8.3
2023-01-13T19:55:04.042Z,8.4
2023-01-13T19:58:05.991Z,7.6
2023-01-13T20:01:08.016Z,9.2
2023-01-13T20:04:09.911Z,9.2
2023-01-13T20:07:11.859Z,6.1
2023-01-13T20:10:13.844Z,6.6
2023-01-13T20:13:15.832Z,5.9
2023-01-13T20:16:17.838Z,7.9
2023-01-13T20:19:19.716Z,6.5
2023-01-13T20:22:21.717Z,5.5
2023-01-13T20:25:23.719Z,7
2023-01-13T20:28:25.624Z,5.8
2023-01-13T20:31:27.624Z,5.6
2023-01-13T20:34:29.592Z,8.9
2023-01-13T20:37:31.506Z,8.9
2023-01-13T20:40:33.497Z,6.4
2023-01-13T20:43:35.461Z,11
2023-01-13T20:46:37.426Z,9.3
2023-01-13T20:49:39.380Z,9.7
2023-01-13T20:52:41.333Z,8.9
2023-01-13T20:55:43.309Z,7
2023-01-13T20:58:45.254Z,7.6
2023-01-13T21:01:47.258Z,5.1
2023-01-13T21:04:49.173Z,4
2023-01-13T21:07:51.173Z,8.4
2023-01-13T21:10:53.162Z,6.3
2023-01-13T21:13:55.075Z,6.4
2023-01-13T21:16:57.065Z,5
2023-01-13T21:19:58.999Z,7
2023-01-13T21:23:00.949Z,9.4
2023-01-13T21:26:02.919Z,7.1
2023-01-13T21:29:04.893Z,10.2
2023-01-13T21:32:06.868Z,10.6
2023-01-13T21:35:08.813Z,8
2023-01-13T21:38:10.761Z,6.1
2023-01-13T21:41:12.736Z,7.3
2023-01-13T21:44:14.688Z,7.8
2023-01-13T21:47:16.640Z,10.7
2023-01-13T21:50:18.720Z,8.3
2023-01-13T21:53:20.603Z,4.8
2023-01-13T21:56:22.526Z,10.1
2023-01-13T21:59:24.519Z,11.4
2023-01-13T22:02:26.737Z,7.6
2023-01-13T22:05:28.419Z,7.9
2023-01-13T22:08:30.406Z,7.9
2023-01-13T22:11:32.358Z,8
2023-01-13T22:14:34.293Z,7.2
2023-01-13T22:17:36.263Z,5.6
2023-01-13T22:20:38.221Z,6.4
2023-01-13T22:23:40.185Z,7.5
2023-01-13T22:26:42.145Z,8.8
2023-01-13T22:29:44.124Z,9.5
2023-01-13T22:32:46.050Z,6.4
2023-01-13T22:35:48.059Z,7.8
2023-01-13T22:38:50.021Z,7.5
2023-01-13T22:41:51.965Z,9.1
2023-01-13T22:44:53.928Z,8.8
2023-01-13T22:47:55.849Z,8.5
2023-01-13T22:50:57.828Z,11.2
2023-01-13T22:53:59.780Z,10.3
2023-01-13T22:57:01.744Z,7.8
2023-01-13T23:00:03.712Z,12.2
2023-01-13T23:03:05.667Z,12.3
2023-01-13T23:06:07.630Z,10.4
2023-01-13T23:09:09.570Z,10.3
2023-01-13T23:12:11.549Z,11
2023-01-13T23:15:13.593Z,16.5
2023-01-13T23:18:15.500Z,8
2023-01-13T23:21:17.465Z,12.5
2023-01-13T23:24:19.437Z,9.8
2023-01-13T23:27:21.421Z,15.3
2023-01-13T23:30:23.366Z,10.3
2023-01-13T23:33:25.323Z,14.7
2023-01-13T23:36:27.262Z,7.5
2023-01-13T23:39:29.198Z,10.9
2023-01-13T23:42:31.173Z,9.3
2023-01-13T23:45:33.154Z,15.2
2023-01-13T23:48:35.086Z,11.9
2023-01-13T23:51:37.040Z,9.4
2023-01-13T23:54:39.000Z,11.5
2023-01-13T23:57:40.972Z,13.4
